Ana Sayfa
METAR-TAF:

METAR-TAF

Havaalanları :

Sullivan County International Airport

Monticello, New York, Amerika Birleşik Devletleri

Enlem: 41-42N, Boylam: 074-48W, yükseklik: 428 m

Güncel hava durumu gözlemi

Rapor saat 10:56 UTC de 1 saat ve 5 dakika önce yapıldı.
Sakin rüzgar
Sıcaklık 16°C
Nem 94%
Basınç 1023 hPa
Görüş mesafesi: 16.1 km
Açık gökyüzü

METAR: KMSV 271056Z AUTO 00000KT 10SM CLR 16/15 A3020 RMK AO2 SLP224 T01560150

Saat: 08:01 (12:01 UTC)


TAF: eksik

4.000'den fazla havaalanı için hava durumu gözlemleri ve tahminleri (METAR ve TAF raporları).

Kullanılabilir istasyonlar harita üzerinde sarı ve kırmızı noktalarla gösterilir.

İstasyonun adını görmek için fareyi noktanın üzerinde gezdirin.

Sonrasında hava gözlem ve tahminlerini görmek için tıklayın.

Haritayı değiştirmek için: yaklaştırmak için siyah artı işaretli yeşil düğmeye ve uzaklaştırmak için de eksi işaretli düğmeye hızla tıklayın; bitişik haritalar için yeşil okları kullanın.


METAR-TAF: